sensor_id;sensor_type;location;lat;lon;timestamp;temperature;humidity
364;DHT22;173;48.718;9.274;2022-09-17T00:00:12;11.20;98.50
364;DHT22;173;48.718;9.274;2022-09-17T00:02:51;11.20;98.60
364;DHT22;173;48.718;9.274;2022-09-17T00:05:25;11.20;99.00
364;DHT22;173;48.718;9.274;2022-09-17T00:07:57;11.00;98.40
364;DHT22;173;48.718;9.274;2022-09-17T00:10:30;10.90;98.90
364;DHT22;173;48.718;9.274;2022-09-17T00:13:00;10.80;99.10
364;DHT22;173;48.718;9.274;2022-09-17T00:15:38;10.80;99.20
364;DHT22;173;48.718;9.274;2022-09-17T00:18:10;10.90;99.50
364;DHT22;173;48.718;9.274;2022-09-17T00:20:46;10.90;98.80
364;DHT22;173;48.718;9.274;2022-09-17T00:23:18;10.70;98.60
364;DHT22;173;48.718;9.274;2022-09-17T00:25:52;10.60;99.20
364;DHT22;173;48.718;9.274;2022-09-17T00:28:26;10.70;99.10
364;DHT22;173;48.718;9.274;2022-09-17T00:30:58;10.70;98.70
364;DHT22;173;48.718;9.274;2022-09-17T00:33:30;10.60;98.50
364;DHT22;173;48.718;9.274;2022-09-17T00:36:05;10.70;99.10
364;DHT22;173;48.718;9.274;2022-09-17T00:38:39;10.80;98.70
364;DHT22;173;48.718;9.274;2022-09-17T00:41:11;10.80;98.40
364;DHT22;173;48.718;9.274;2022-09-17T00:43:46;10.90;98.30
364;DHT22;173;48.718;9.274;2022-09-17T00:46:28;10.90;98.20
364;DHT22;173;48.718;9.274;2022-09-17T00:49:19;10.90;98.30
364;DHT22;173;48.718;9.274;2022-09-17T00:52:03;10.90;98.30
364;DHT22;173;48.718;9.274;2022-09-17T00:54:34;10.90;98.10
364;DHT22;173;48.718;9.274;2022-09-17T00:57:09;10.90;98.10
364;DHT22;173;48.718;9.274;2022-09-17T00:59:41;10.90;98.10
364;DHT22;173;48.718;9.274;2022-09-17T01:04:44;10.80;98.40
364;DHT22;173;48.718;9.274;2022-09-17T01:10:43;10.90;98.50
364;DHT22;173;48.718;9.274;2022-09-17T01:13:33;11.00;98.00
364;DHT22;173;48.718;9.274;2022-09-17T01:16:14;11.00;98.40
364;DHT22;173;48.718;9.274;2022-09-17T01:22:23;10.90;98.10
364;DHT22;173;48.718;9.274;2022-09-17T01:25:23;10.80;97.90
364;DHT22;173;48.718;9.274;2022-09-17T01:28:40;10.80;97.90
364;DHT22;173;48.718;9.274;2022-09-17T01:34:13;10.60;98.70
364;DHT22;173;48.718;9.274;2022-09-17T01:42:58;10.60;98.80
364;DHT22;173;48.718;9.274;2022-09-17T01:45:48;10.60;98.50
364;DHT22;173;48.718;9.274;2022-09-17T01:48:26;10.60;98.50
364;DHT22;173;48.718;9.274;2022-09-17T01:51:10;10.40;98.90
364;DHT22;173;48.718;9.274;2022-09-17T01:53:51;10.50;99.10
364;DHT22;173;48.718;9.274;2022-09-17T01:56:43;10.50;99.20
364;DHT22;173;48.718;9.274;2022-09-17T01:59:22;10.50;99.10
364;DHT22;173;48.718;9.274;2022-09-17T02:01:58;10.60;99.00
364;DHT22;173;48.718;9.274;2022-09-17T02:04:42;10.70;99.00
364;DHT22;173;48.718;9.274;2022-09-17T02:07:18;10.70;98.40
364;DHT22;173;48.718;9.274;2022-09-17T02:10:02;10.70;98.10
364;DHT22;173;48.718;9.274;2022-09-17T02:12:42;10.70;98.10
364;DHT22;173;48.718;9.274;2022-09-17T02:15:19;10.70;98.40
364;DHT22;173;48.718;9.274;2022-09-17T02:18:02;10.70;98.60
364;DHT22;173;48.718;9.274;2022-09-17T02:20:51;10.60;98.80
364;DHT22;173;48.718;9.274;2022-09-17T02:23:27;10.60;98.80
364;DHT22;173;48.718;9.274;2022-09-17T02:26:09;10.60;98.60
364;DHT22;173;48.718;9.274;2022-09-17T02:28:48;10.60;98.50
364;DHT22;173;48.718;9.274;2022-09-17T02:31:22;10.50;98.80
364;DHT22;173;48.718;9.274;2022-09-17T02:33:58;10.40;98.90
364;DHT22;173;48.718;9.274;2022-09-17T02:36:33;10.40;99.00
364;DHT22;173;48.718;9.274;2022-09-17T02:39:09;10.40;98.90
364;DHT22;173;48.718;9.274;2022-09-17T02:52:16;10.40;99.10
364;DHT22;173;48.718;9.274;2022-09-17T02:57:04;10.50;99.30
364;DHT22;173;48.718;9.274;2022-09-17T03:00:08;10.60;98.80
364;DHT22;173;48.718;9.274;2022-09-17T03:02:56;10.60;98.90
364;DHT22;173;48.718;9.274;2022-09-17T03:05:32;10.60;99.10
364;DHT22;173;48.718;9.274;2022-09-17T03:08:07;10.60;99.00
364;DHT22;173;48.718;9.274;2022-09-17T03:10:41;10.50;99.10
364;DHT22;173;48.718;9.274;2022-09-17T03:13:15;10.50;99.30
364;DHT22;173;48.718;9.274;2022-09-17T03:15:47;10.50;99.10
364;DHT22;173;48.718;9.274;2022-09-17T03:18:21;10.40;98.90
364;DHT22;173;48.718;9.274;2022-09-17T03:20:53;10.40;99.30
364;DHT22;173;48.718;9.274;2022-09-17T03:23:28;10.40;99.30
364;DHT22;173;48.718;9.274;2022-09-17T03:26:00;10.30;99.00
364;DHT22;173;48.718;9.274;2022-09-17T03:28:32;10.30;99.20
364;DHT22;173;48.718;9.274;2022-09-17T03:31:06;10.30;99.30
364;DHT22;173;48.718;9.274;2022-09-17T03:36:11;10.40;99.20
364;DHT22;173;48.718;9.274;2022-09-17T03:38:43;10.40;98.80
364;DHT22;173;48.718;9.274;2022-09-17T03:41:15;10.30;98.90
364;DHT22;173;48.718;9.274;2022-09-17T03:43:47;10.20;99.00
364;DHT22;173;48.718;9.274;2022-09-17T03:46:21;10.20;99.40
364;DHT22;173;48.718;9.274;2022-09-17T03:48:55;10.20;99.50
364;DHT22;173;48.718;9.274;2022-09-17T03:51:27;10.20;99.50
364;DHT22;173;48.718;9.274;2022-09-17T03:53:59;10.20;99.40
364;DHT22;173;48.718;9.274;2022-09-17T03:56:31;10.20;99.30
364;DHT22;173;48.718;9.274;2022-09-17T03:59:02;10.20;99.50
364;DHT22;173;48.718;9.274;2022-09-17T04:01:34;10.20;99.50
364;DHT22;173;48.718;9.274;2022-09-17T04:04:08;10.10;99.50
364;DHT22;173;48.718;9.274;2022-09-17T04:06:40;10.20;99.50
364;DHT22;173;48.718;9.274;2022-09-17T04:09:10;10.20;99.40
364;DHT22;173;48.718;9.274;2022-09-17T04:11:42;10.10;99.50
364;DHT22;173;48.718;9.274;2022-09-17T04:14:14;10.00;99.50
364;DHT22;173;48.718;9.274;2022-09-17T04:16:46;10.00;99.50
364;DHT22;173;48.718;9.274;2022-09-17T04:19:20;10.00;99.50
364;DHT22;173;48.718;9.274;2022-09-17T04:21:54;10.00;99.50
364;DHT22;173;48.718;9.274;2022-09-17T04:24:26;10.00;99.50
364;DHT22;173;48.718;9.274;2022-09-17T04:26:58;10.00;99.50
364;DHT22;173;48.718;9.274;2022-09-17T04:29:30;10.00;99.40
364;DHT22;173;48.718;9.274;2022-09-17T04:32:03;10.00;99.50
364;DHT22;173;48.718;9.274;2022-09-17T04:34:37;10.00;99.50
364;DHT22;173;48.718;9.274;2022-09-17T04:37:11;10.00;99.50
364;DHT22;173;48.718;9.274;2022-09-17T04:39:41;9.90;99.00
364;DHT22;173;48.718;9.274;2022-09-17T04:42:14;9.80;99.20
364;DHT22;173;48.718;9.274;2022-09-17T04:44:46;9.80;99.30
364;DHT22;173;48.718;9.274;2022-09-17T04:47:18;9.80;99.40
364;DHT22;173;48.718;9.274;2022-09-17T04:49:52;9.80;99.40
364;DHT22;173;48.718;9.274;2022-09-17T04:52:26;9.80;99.50
364;DHT22;173;48.718;9.274;2022-09-17T04:54:58;10.00;99.50
364;DHT22;173;48.718;9.274;2022-09-17T04:57:30;10.00;99.10
364;DHT22;173;48.718;9.274;2022-09-17T05:00:02;10.00;98.70
364;DHT22;173;48.718;9.274;2022-09-17T05:02:36;10.10;98.60
364;DHT22;173;48.718;9.274;2022-09-17T05:05:10;10.10;98.20
364;DHT22;173;48.718;9.274;2022-09-17T05:07:43;10.20;98.30
364;DHT22;173;48.718;9.274;2022-09-17T05:10:19;10.10;98.20
364;DHT22;173;48.718;9.274;2022-09-17T05:12:53;10.10;98.30
364;DHT22;173;48.718;9.274;2022-09-17T05:15:26;10.10;98.30
364;DHT22;173;48.718;9.274;2022-09-17T05:17:58;10.10;98.30
364;DHT22;173;48.718;9.274;2022-09-17T05:20:32;10.20;98.30
364;DHT22;173;48.718;9.274;2022-09-17T05:23:05;10.20;97.50
364;DHT22;173;48.718;9.274;2022-09-17T05:25:35;10.10;97.50
364;DHT22;173;48.718;9.274;2022-09-17T05:28:07;10.10;97.80
364;DHT22;173;48.718;9.274;2022-09-17T05:30:39;10.10;97.50
364;DHT22;173;48.718;9.274;2022-09-17T05:33:13;10.00;97.60
364;DHT22;173;48.718;9.274;2022-09-17T05:35:47;10.10;97.50
364;DHT22;173;48.718;9.274;2022-09-17T05:38:19;10.10;97.20
364;DHT22;173;48.718;9.274;2022-09-17T05:40:51;10.00;97.40
364;DHT22;173;48.718;9.274;2022-09-17T05:43:25;10.10;97.90
364;DHT22;173;48.718;9.274;2022-09-17T05:46:03;10.20;97.10
364;DHT22;173;48.718;9.274;2022-09-17T05:48:35;10.10;96.50
364;DHT22;173;48.718;9.274;2022-09-17T05:51:09;10.10;96.60
364;DHT22;173;48.718;9.274;2022-09-17T05:53:41;10.10;96.80
364;DHT22;173;48.718;9.274;2022-09-17T05:56:13;10.10;96.90
364;DHT22;173;48.718;9.274;2022-09-17T05:58:46;10.10;96.80
364;DHT22;173;48.718;9.274;2022-09-17T06:01:20;10.10;97.00
364;DHT22;173;48.718;9.274;2022-09-17T06:03:52;10.20;96.90
364;DHT22;173;48.718;9.274;2022-09-17T06:09:00;10.40;96.60
364;DHT22;173;48.718;9.274;2022-09-17T06:11:32;10.40;96.70
364;DHT22;173;48.718;9.274;2022-09-17T06:14:03;10.50;96.10
364;DHT22;173;48.718;9.274;2022-09-17T06:16:35;10.60;96.00
364;DHT22;173;48.718;9.274;2022-09-17T06:19:05;10.60;96.10
364;DHT22;173;48.718;9.274;2022-09-17T06:21:37;10.60;95.70
364;DHT22;173;48.718;9.274;2022-09-17T06:24:10;10.60;95.90
364;DHT22;173;48.718;9.274;2022-09-17T06:26:42;10.70;96.30
364;DHT22;173;48.718;9.274;2022-09-17T06:29:14;10.70;96.10
364;DHT22;173;48.718;9.274;2022-09-17T06:31:49;10.80;96.20
364;DHT22;173;48.718;9.274;2022-09-17T06:34:22;10.90;95.10
364;DHT22;173;48.718;9.274;2022-09-17T06:36:56;10.90;95.40
364;DHT22;173;48.718;9.274;2022-09-17T06:39:28;11.10;95.60
364;DHT22;173;48.718;9.274;2022-09-17T06:41:59;11.10;94.60
364;DHT22;173;48.718;9.274;2022-09-17T06:44:33;11.20;94.40
364;DHT22;173;48.718;9.274;2022-09-17T06:47:07;11.20;93.70
364;DHT22;173;48.718;9.274;2022-09-17T06:49:39;11.00;93.10
364;DHT22;173;48.718;9.274;2022-09-17T06:52:13;10.90;93.90
364;DHT22;173;48.718;9.274;2022-09-17T06:54:45;11.00;94.40
364;DHT22;173;48.718;9.274;2022-09-17T06:57:17;10.90;93.70
364;DHT22;173;48.718;9.274;2022-09-17T06:59:49;10.90;93.80
364;DHT22;173;48.718;9.274;2022-09-17T07:02:21;10.90;93.60
364;DHT22;173;48.718;9.274;2022-09-17T07:04:53;10.90;93.90
364;DHT22;173;48.718;9.274;2022-09-17T07:07:25;10.90;93.90
364;DHT22;173;48.718;9.274;2022-09-17T07:09:58;10.90;94.20
364;DHT22;173;48.718;9.274;2022-09-17T07:12:30;10.90;93.90
364;DHT22;173;48.718;9.274;2022-09-17T07:15:04;10.90;94.40
364;DHT22;173;48.718;9.274;2022-09-17T07:17:42;10.90;94.10
364;DHT22;173;48.718;9.274;2022-09-17T07:20:17;11.00;94.30
364;DHT22;173;48.718;9.274;2022-09-17T07:22:56;11.00;93.60
364;DHT22;173;48.718;9.274;2022-09-17T07:25:28;10.90;93.60
364;DHT22;173;48.718;9.274;2022-09-17T07:28:01;10.80;95.20
364;DHT22;173;48.718;9.274;2022-09-17T07:30:32;10.70;96.50
364;DHT22;173;48.718;9.274;2022-09-17T07:33:03;10.60;97.50
364;DHT22;173;48.718;9.274;2022-09-17T07:35:36;10.60;98.00
364;DHT22;173;48.718;9.274;2022-09-17T07:38:10;10.50;98.70
364;DHT22;173;48.718;9.274;2022-09-17T07:40:42;10.40;99.50
364;DHT22;173;48.718;9.274;2022-09-17T07:43:14;10.30;99.50
364;DHT22;173;48.718;9.274;2022-09-17T07:45:46;10.30;99.50
364;DHT22;173;48.718;9.274;2022-09-17T07:48:20;10.40;99.50
364;DHT22;173;48.718;9.274;2022-09-17T07:50:55;10.30;99.50
364;DHT22;173;48.718;9.274;2022-09-17T07:53:29;10.40;99.50
364;DHT22;173;48.718;9.274;2022-09-17T07:56:03;10.70;99.50
364;DHT22;173;48.718;9.274;2022-09-17T07:58:37;10.80;99.50
364;DHT22;173;48.718;9.274;2022-09-17T08:01:13;10.70;99.50
364;DHT22;173;48.718;9.274;2022-09-17T08:03:52;10.70;99.50
364;DHT22;173;48.718;9.274;2022-09-17T08:06:27;10.60;99.50
364;DHT22;173;48.718;9.274;2022-09-17T08:09:02;10.60;99.50
364;DHT22;173;48.718;9.274;2022-09-17T08:11:36;10.50;99.50
364;DHT22;173;48.718;9.274;2022-09-17T08:14:10;10.20;99.50
364;DHT22;173;48.718;9.274;2022-09-17T08:16:42;10.10;99.50
364;DHT22;173;48.718;9.274;2022-09-17T08:19:14;10.10;99.50
364;DHT22;173;48.718;9.274;2022-09-17T08:21:46;10.20;99.50
364;DHT22;173;48.718;9.274;2022-09-17T08:24:20;10.50;99.50
364;DHT22;173;48.718;9.274;2022-09-17T08:26:51;10.60;99.50
364;DHT22;173;48.718;9.274;2022-09-17T08:29:22;10.60;99.50
364;DHT22;173;48.718;9.274;2022-09-17T08:31:53;10.70;99.50
364;DHT22;173;48.718;9.274;2022-09-17T08:34:23;10.70;99.50
364;DHT22;173;48.718;9.274;2022-09-17T08:36:55;10.70;99.50
364;DHT22;173;48.718;9.274;2022-09-17T08:39:29;10.80;99.50
364;DHT22;173;48.718;9.274;2022-09-17T08:42:26;11.00;99.50
364;DHT22;173;48.718;9.274;2022-09-17T08:45:07;11.00;99.50
364;DHT22;173;48.718;9.274;2022-09-17T08:47:46;11.10;99.50
364;DHT22;173;48.718;9.274;2022-09-17T08:50:28;11.00;99.50
364;DHT22;173;48.718;9.274;2022-09-17T08:53:19;11.20;99.50
364;DHT22;173;48.718;9.274;2022-09-17T08:56:01;11.30;99.50
364;DHT22;173;48.718;9.274;2022-09-17T08:59:02;11.50;99.50
364;DHT22;173;48.718;9.274;2022-09-17T09:02:01;11.70;99.50
364;DHT22;173;48.718;9.274;2022-09-17T09:07:50;11.80;97.80
364;DHT22;173;48.718;9.274;2022-09-17T09:10:22;12.10;97.00
364;DHT22;173;48.718;9.274;2022-09-17T09:13:00;12.20;96.10
364;DHT22;173;48.718;9.274;2022-09-17T09:15:39;12.50;96.10
364;DHT22;173;48.718;9.274;2022-09-17T09:18:24;12.70;95.00
364;DHT22;173;48.718;9.274;2022-09-17T09:21:05;12.90;94.10
364;DHT22;173;48.718;9.274;2022-09-17T09:23:51;12.90;90.20
364;DHT22;173;48.718;9.274;2022-09-17T09:26:41;13.20;93.50
364;DHT22;173;48.718;9.274;2022-09-17T09:33:26;13.60;91.10
364;DHT22;173;48.718;9.274;2022-09-17T09:35:22;13.50;87.60
364;DHT22;173;48.718;9.274;2022-09-17T09:41:16;13.40;89.70
364;DHT22;173;48.718;9.274;2022-09-17T09:43:49;13.50;88.70
364;DHT22;173;48.718;9.274;2022-09-17T09:58:44;14.00;87.20
364;DHT22;173;48.718;9.274;2022-09-17T10:01:16;13.80;85.60
364;DHT22;173;48.718;9.274;2022-09-17T10:03:50;13.30;87.00
364;DHT22;173;48.718;9.274;2022-09-17T10:06:27;13.00;88.30
364;DHT22;173;48.718;9.274;2022-09-17T10:11:39;12.70;89.20
364;DHT22;173;48.718;9.274;2022-09-17T10:14:34;12.80;91.00
364;DHT22;173;48.718;9.274;2022-09-17T10:17:25;12.60;89.70
364;DHT22;173;48.718;9.274;2022-09-17T10:20:11;12.50;89.30
364;DHT22;173;48.718;9.274;2022-09-17T10:22:48;12.20;89.00
364;DHT22;173;48.718;9.274;2022-09-17T10:25:33;12.20;91.00
364;DHT22;173;48.718;9.274;2022-09-17T10:28:20;12.50;92.10
364;DHT22;173;48.718;9.274;2022-09-17T10:31:04;13.50;91.00
364;DHT22;173;48.718;9.274;2022-09-17T10:33:56;14.90;87.70
364;DHT22;173;48.718;9.274;2022-09-17T10:36:46;15.60;80.30
364;DHT22;173;48.718;9.274;2022-09-17T10:42:15;16.80;75.40
364;DHT22;173;48.718;9.274;2022-09-17T10:44:56;16.50;76.70
364;DHT22;173;48.718;9.274;2022-09-17T10:47:42;16.40;75.10
364;DHT22;173;48.718;9.274;2022-09-17T10:50:27;16.70;75.00
364;DHT22;173;48.718;9.274;2022-09-17T10:52:56;16.80;74.80
364;DHT22;173;48.718;9.274;2022-09-17T10:55:43;16.60;73.50
364;DHT22;173;48.718;9.274;2022-09-17T10:58:39;17.00;73.50
364;DHT22;173;48.718;9.274;2022-09-17T11:10:14;17.70;70.20
364;DHT22;173;48.718;9.274;2022-09-17T11:13:00;16.80;68.50
364;DHT22;173;48.718;9.274;2022-09-17T11:18:59;16.50;71.40
364;DHT22;173;48.718;9.274;2022-09-17T11:21:37;18.10;67.40
364;DHT22;173;48.718;9.274;2022-09-17T11:30:15;18.50;65.70
364;DHT22;173;48.718;9.274;2022-09-17T11:33:01;18.90;64.50
364;DHT22;173;48.718;9.274;2022-09-17T11:35:56;18.10;64.60
364;DHT22;173;48.718;9.274;2022-09-17T11:38:39;17.40;65.50
364;DHT22;173;48.718;9.274;2022-09-17T11:41:41;17.20;66.80
364;DHT22;173;48.718;9.274;2022-09-17T11:44:09;18.00;64.70
364;DHT22;173;48.718;9.274;2022-09-17T11:49:44;17.40;65.50
364;DHT22;173;48.718;9.274;2022-09-17T11:52:22;17.10;64.70
364;DHT22;173;48.718;9.274;2022-09-17T11:57:38;17.60;63.50
364;DHT22;173;48.718;9.274;2022-09-17T12:00:15;17.30;65.80
364;DHT22;173;48.718;9.274;2022-09-17T12:03:31;17.10;64.80
364;DHT22;173;48.718;9.274;2022-09-17T12:06:01;16.80;66.60
364;DHT22;173;48.718;9.274;2022-09-17T12:11:48;17.10;66.10
364;DHT22;173;48.718;9.274;2022-09-17T12:14:40;16.80;66.90
364;DHT22;173;48.718;9.274;2022-09-17T12:17:32;16.80;66.60
364;DHT22;173;48.718;9.274;2022-09-17T12:20:26;16.60;65.10
364;DHT22;173;48.718;9.274;2022-09-17T12:23:01;16.40;64.70
364;DHT22;173;48.718;9.274;2022-09-17T12:25:43;16.60;64.70
364;DHT22;173;48.718;9.274;2022-09-17T12:30:58;15.70;70.00
364;DHT22;173;48.718;9.274;2022-09-17T12:36:18;14.90;75.50
364;DHT22;173;48.718;9.274;2022-09-17T12:42:44;14.70;77.20
364;DHT22;173;48.718;9.274;2022-09-17T12:45:41;14.50;80.10
364;DHT22;173;48.718;9.274;2022-09-17T13:00:09;16.90;73.40
364;DHT22;173;48.718;9.274;2022-09-17T13:11:49;14.40;81.60
364;DHT22;173;48.718;9.274;2022-09-17T13:14:35;14.70;83.40
364;DHT22;173;48.718;9.274;2022-09-17T13:17:41;14.30;81.80
364;DHT22;173;48.718;9.274;2022-09-17T13:20:29;13.90;85.20
364;DHT22;173;48.718;9.274;2022-09-17T13:23:05;13.20;87.40
364;DHT22;173;48.718;9.274;2022-09-17T13:25:49;12.60;90.80
364;DHT22;173;48.718;9.274;2022-09-17T13:28:22;12.10;91.90
364;DHT22;173;48.718;9.274;2022-09-17T13:31:01;12.00;93.90
364;DHT22;173;48.718;9.274;2022-09-17T13:33:54;12.10;94.80
364;DHT22;173;48.718;9.274;2022-09-17T13:39:38;12.00;92.40
364;DHT22;173;48.718;9.274;2022-09-17T13:42:16;12.00;93.40
364;DHT22;173;48.718;9.274;2022-09-17T13:45:15;12.10;93.60
364;DHT22;173;48.718;9.274;2022-09-17T13:48:09;12.30;94.00
364;DHT22;173;48.718;9.274;2022-09-17T13:58:30;14.00;87.60
364;DHT22;173;48.718;9.274;2022-09-17T14:01:13;14.50;85.40
364;DHT22;173;48.718;9.274;2022-09-17T14:03:49;15.00;85.00
364;DHT22;173;48.718;9.274;2022-09-17T14:09:26;15.40;83.80
364;DHT22;173;48.718;9.274;2022-09-17T14:11:55;15.30;81.00
364;DHT22;173;48.718;9.274;2022-09-17T14:14:47;15.90;80.40
364;DHT22;173;48.718;9.274;2022-09-17T14:17:09;16.50;78.70
364;DHT22;173;48.718;9.274;2022-09-17T14:19:47;16.90;75.10
364;DHT22;173;48.718;9.274;2022-09-17T14:22:30;16.70;76.60
364;DHT22;173;48.718;9.274;2022-09-17T14:24:57;17.00;76.50
364;DHT22;173;48.718;9.274;2022-09-17T14:30:20;17.40;73.50
364;DHT22;173;48.718;9.274;2022-09-17T14:33:14;17.60;71.70
364;DHT22;173;48.718;9.274;2022-09-17T14:35:55;17.80;71.30
364;DHT22;173;48.718;9.274;2022-09-17T14:38:40;17.30;71.80
364;DHT22;173;48.718;9.274;2022-09-17T14:41:28;16.70;73.10
364;DHT22;173;48.718;9.274;2022-09-17T14:44:16;15.80;75.70
364;DHT22;173;48.718;9.274;2022-09-17T14:46:51;15.30;78.10
364;DHT22;173;48.718;9.274;2022-09-17T14:49:28;15.50;77.90
364;DHT22;173;48.718;9.274;2022-09-17T14:52:30;15.40;77.60
364;DHT22;173;48.718;9.274;2022-09-17T14:55:14;15.20;78.80
364;DHT22;173;48.718;9.274;2022-09-17T14:57:59;15.10;80.00
364;DHT22;173;48.718;9.274;2022-09-17T15:00:36;15.10;80.50
364;DHT22;173;48.718;9.274;2022-09-17T15:03:19;15.20;80.00
364;DHT22;173;48.718;9.274;2022-09-17T15:05:51;15.30;79.90
364;DHT22;173;48.718;9.274;2022-09-17T15:08:25;15.40;79.40
364;DHT22;173;48.718;9.274;2022-09-17T15:11:02;15.40;80.10
364;DHT22;173;48.718;9.274;2022-09-17T15:13:49;15.10;80.80
364;DHT22;173;48.718;9.274;2022-09-17T15:16:20;14.90;82.20
364;DHT22;173;48.718;9.274;2022-09-17T15:18:57;15.10;81.80
364;DHT22;173;48.718;9.274;2022-09-17T15:21:34;15.30;82.00
364;DHT22;173;48.718;9.274;2022-09-17T15:27:02;15.00;79.70
364;DHT22;173;48.718;9.274;2022-09-17T15:29:56;14.70;81.30
364;DHT22;173;48.718;9.274;2022-09-17T15:32:50;14.60;82.00
364;DHT22;173;48.718;9.274;2022-09-17T15:35:35;14.50;82.70
364;DHT22;173;48.718;9.274;2022-09-17T15:38:25;14.60;82.90
364;DHT22;173;48.718;9.274;2022-09-17T15:44:33;14.60;81.60
364;DHT22;173;48.718;9.274;2022-09-17T15:46:37;14.70;82.50
364;DHT22;173;48.718;9.274;2022-09-17T15:49:29;14.60;81.60
364;DHT22;173;48.718;9.274;2022-09-17T15:55:00;14.30;81.80
364;DHT22;173;48.718;9.274;2022-09-17T15:57:33;14.30;80.40
364;DHT22;173;48.718;9.274;2022-09-17T16:00:15;14.20;80.80
364;DHT22;173;48.718;9.274;2022-09-17T16:02:47;14.00;80.90
364;DHT22;173;48.718;9.274;2022-09-17T16:07:59;14.00;81.50
364;DHT22;173;48.718;9.274;2022-09-17T16:10:45;14.10;81.90
364;DHT22;173;48.718;9.274;2022-09-17T16:13:17;14.20;81.30
364;DHT22;173;48.718;9.274;2022-09-17T16:15:50;14.00;81.40
364;DHT22;173;48.718;9.274;2022-09-17T16:18:20;13.70;81.90
364;DHT22;173;48.718;9.274;2022-09-17T16:20:50;13.70;82.60
364;DHT22;173;48.718;9.274;2022-09-17T16:23:22;13.70;82.20
364;DHT22;173;48.718;9.274;2022-09-17T16:25:54;13.70;82.30
364;DHT22;173;48.718;9.274;2022-09-17T16:28:27;13.60;81.80
364;DHT22;173;48.718;9.274;2022-09-17T16:31:00;13.60;82.40
364;DHT22;173;48.718;9.274;2022-09-17T16:33:31;13.70;81.90
364;DHT22;173;48.718;9.274;2022-09-17T16:36:02;13.80;81.80
364;DHT22;173;48.718;9.274;2022-09-17T16:38:32;13.90;81.80
364;DHT22;173;48.718;9.274;2022-09-17T16:41:06;14.00;82.60
364;DHT22;173;48.718;9.274;2022-09-17T16:43:38;14.20;82.60
364;DHT22;173;48.718;9.274;2022-09-17T16:46:09;14.20;80.70
364;DHT22;173;48.718;9.274;2022-09-17T16:48:42;14.30;80.20
364;DHT22;173;48.718;9.274;2022-09-17T16:51:14;14.20;80.60
364;DHT22;173;48.718;9.274;2022-09-17T16:53:47;14.00;80.50
364;DHT22;173;48.718;9.274;2022-09-17T16:56:19;14.00;81.30
364;DHT22;173;48.718;9.274;2022-09-17T16:58:53;14.00;81.30
364;DHT22;173;48.718;9.274;2022-09-17T17:01:25;14.10;81.60
364;DHT22;173;48.718;9.274;2022-09-17T17:03:57;14.00;81.70
364;DHT22;173;48.718;9.274;2022-09-17T17:06:29;13.90;81.30
364;DHT22;173;48.718;9.274;2022-09-17T17:09:00;13.90;82.00
364;DHT22;173;48.718;9.274;2022-09-17T17:11:30;13.90;82.20
364;DHT22;173;48.718;9.274;2022-09-17T17:14:02;13.80;82.20
364;DHT22;173;48.718;9.274;2022-09-17T17:16:34;13.80;82.60
364;DHT22;173;48.718;9.274;2022-09-17T17:19:08;13.70;82.80
364;DHT22;173;48.718;9.274;2022-09-17T17:21:40;13.70;83.20
364;DHT22;173;48.718;9.274;2022-09-17T17:24:12;13.60;83.20
364;DHT22;173;48.718;9.274;2022-09-17T17:26:45;13.40;85.30
364;DHT22;173;48.718;9.274;2022-09-17T17:29:17;12.90;88.20
364;DHT22;173;48.718;9.274;2022-09-17T17:31:49;12.60;91.00
364;DHT22;173;48.718;9.274;2022-09-17T17:34:23;12.40;92.50
364;DHT22;173;48.718;9.274;2022-09-17T17:36:56;12.30;93.60
364;DHT22;173;48.718;9.274;2022-09-17T17:39:28;12.30;94.30
364;DHT22;173;48.718;9.274;2022-09-17T17:42:00;12.30;94.30
364;DHT22;173;48.718;9.274;2022-09-17T17:44:32;12.30;95.40
364;DHT22;173;48.718;9.274;2022-09-17T17:47:04;12.20;95.30
364;DHT22;173;48.718;9.274;2022-09-17T17:49:36;12.10;96.40
364;DHT22;173;48.718;9.274;2022-09-17T17:52:10;12.00;96.40
364;DHT22;173;48.718;9.274;2022-09-17T17:54:42;12.00;96.70
364;DHT22;173;48.718;9.274;2022-09-17T17:57:14;12.00;96.90
364;DHT22;173;48.718;9.274;2022-09-17T17:59:48;11.90;97.50
364;DHT22;173;48.718;9.274;2022-09-17T18:02:20;11.90;97.70
364;DHT22;173;48.718;9.274;2022-09-17T18:04:54;11.90;98.30
364;DHT22;173;48.718;9.274;2022-09-17T18:07:27;11.80;98.90
364;DHT22;173;48.718;9.274;2022-09-17T18:09:59;11.80;99.50
364;DHT22;173;48.718;9.274;2022-09-17T18:12:31;11.70;99.50
364;DHT22;173;48.718;9.274;2022-09-17T18:15:05;11.50;99.50
364;DHT22;173;48.718;9.274;2022-09-17T18:17:39;11.40;99.20
364;DHT22;173;48.718;9.274;2022-09-17T18:20:13;11.40;99.40
364;DHT22;173;48.718;9.274;2022-09-17T18:22:47;11.40;99.50
364;DHT22;173;48.718;9.274;2022-09-17T18:25:19;11.40;99.40
364;DHT22;173;48.718;9.274;2022-09-17T18:27:49;11.50;99.50
364;DHT22;173;48.718;9.274;2022-09-17T18:30:21;11.50;99.50
364;DHT22;173;48.718;9.274;2022-09-17T18:38:17;11.50;99.50
364;DHT22;173;48.718;9.274;2022-09-17T18:40:49;11.40;99.50
364;DHT22;173;48.718;9.274;2022-09-17T18:43:21;11.30;99.50
364;DHT22;173;48.718;9.274;2022-09-17T18:45:55;11.20;99.50
364;DHT22;173;48.718;9.274;2022-09-17T18:48:29;11.10;99.50
364;DHT22;173;48.718;9.274;2022-09-17T18:51:09;11.00;99.50
364;DHT22;173;48.718;9.274;2022-09-17T18:53:41;11.00;99.50
364;DHT22;173;48.718;9.274;2022-09-17T18:56:24;11.00;99.50
364;DHT22;173;48.718;9.274;2022-09-17T18:59:00;11.00;99.50
364;DHT22;173;48.718;9.274;2022-09-17T19:01:34;10.90;99.50
364;DHT22;173;48.718;9.274;2022-09-17T19:04:06;11.00;99.50
364;DHT22;173;48.718;9.274;2022-09-17T19:06:40;11.00;99.50
364;DHT22;173;48.718;9.274;2022-09-17T19:09:12;11.00;99.50
364;DHT22;173;48.718;9.274;2022-09-17T19:11:44;11.20;99.50
364;DHT22;173;48.718;9.274;2022-09-17T19:14:16;11.20;99.50
364;DHT22;173;48.718;9.274;2022-09-17T19:16:48;11.10;99.50
364;DHT22;173;48.718;9.274;2022-09-17T19:19:21;11.10;99.50
364;DHT22;173;48.718;9.274;2022-09-17T19:21:55;10.90;99.50
364;DHT22;173;48.718;9.274;2022-09-17T19:24:27;10.80;99.50
364;DHT22;173;48.718;9.274;2022-09-17T19:26:59;10.70;99.50
364;DHT22;173;48.718;9.274;2022-09-17T19:29:31;10.60;99.50
364;DHT22;173;48.718;9.274;2022-09-17T19:32:03;10.40;99.50
364;DHT22;173;48.718;9.274;2022-09-17T19:34:37;10.10;99.50
364;DHT22;173;48.718;9.274;2022-09-17T19:37:11;9.90;99.50
364;DHT22;173;48.718;9.274;2022-09-17T19:39:44;9.80;99.50
364;DHT22;173;48.718;9.274;2022-09-17T19:42:18;9.70;99.50
364;DHT22;173;48.718;9.274;2022-09-17T19:44:52;9.70;99.50
364;DHT22;173;48.718;9.274;2022-09-17T19:47:26;9.80;99.50
364;DHT22;173;48.718;9.274;2022-09-17T19:50:00;10.00;99.50
364;DHT22;173;48.718;9.274;2022-09-17T19:52:34;10.00;99.50
364;DHT22;173;48.718;9.274;2022-09-17T19:55:11;10.00;99.50
364;DHT22;173;48.718;9.274;2022-09-17T19:57:42;10.00;99.50
364;DHT22;173;48.718;9.274;2022-09-17T20:00:16;10.00;99.50
364;DHT22;173;48.718;9.274;2022-09-17T20:02:50;10.00;99.50
364;DHT22;173;48.718;9.274;2022-09-17T20:05:24;10.00;99.50
364;DHT22;173;48.718;9.274;2022-09-17T20:07:58;9.90;99.50
364;DHT22;173;48.718;9.274;2022-09-17T20:10:36;9.70;99.50